METAR
Diposting tanggal: 22 April 2019

Pukul :

Isi :

METAR WAGI 210900Z 30004KT 8000 SCT012 29/26 Q1008=